Time;durP1;ratioP1;P1;durP2;ratioP2;P2;SDS_P1;SDS_P2;PMS_P1;PMS_P2;Temp;Humidity;BMP_temperature;BMP_pressure;BME280_temperature;BME280_humidity;BME280_pressure;Samples;Min_cycle;Max_cycle;Signal;HPM_P1;HPM_P2
2023/10/01 00:01:51;;;;;;;10.60;8.57;;;15.70;94.20;;;;;;5073690;28;20451;-55
2023/10/01 00:04:18;;;;;;;9.93;7.77;;;15.70;94.10;;;;;;5073554;28;20445;-56
2023/10/01 00:06:44;;;;;;;10.67;7.87;;;15.70;94.10;;;;;;5072766;28;20436;-56
2023/10/01 00:09:11;;;;;;;12.00;8.00;;;15.70;94.30;;;;;;5073255;28;20983;-56
2023/10/01 00:11:39;;;;;;;13.13;8.67;;;15.70;94.50;;;;;;5073589;28;20490;-55
2023/10/01 00:14:08;;;;;;;14.53;9.07;;;15.70;94.50;;;;;;5073210;28;20440;-56
2023/10/01 00:16:37;;;;;;;11.20;8.67;;;15.70;94.50;;;;;;5073226;28;20817;-56
2023/10/01 00:19:04;;;;;;;14.10;8.37;;;15.70;94.90;;;;;;5073174;28;20487;-56
2023/10/01 00:21:31;;;;;;;12.40;8.67;;;15.70;94.60;;;;;;5073551;28;20506;-56
2023/10/01 00:23:58;;;;;;;14.63;8.13;;;15.60;94.60;;;;;;5073223;28;20456;-56
2023/10/01 00:26:25;;;;;;;13.50;8.23;;;15.60;94.70;;;;;;5073577;28;20437;-56
2023/10/01 00:28:53;;;;;;;10.50;7.80;;;15.60;94.70;;;;;;5074168;28;20477;-56
2023/10/01 00:31:20;;;;;;;9.37;8.10;;;15.60;94.80;;;;;;5073291;28;20533;-56
2023/10/01 00:33:48;;;;;;;16.50;7.80;;;15.60;94.80;;;;;;5073440;28;20475;-56
2023/10/01 00:36:14;;;;;;;9.70;7.60;;;15.60;94.80;;;;;;5073178;28;20953;-56
2023/10/01 00:38:41;;;;;;;11.17;7.50;;;15.50;94.80;;;;;;5073044;28;20448;-56
2023/10/01 00:41:08;;;;;;;14.90;8.07;;;15.50;94.70;;;;;;5073041;28;20490;-56
2023/10/01 00:43:35;;;;;;;12.00;8.60;;;15.50;94.80;;;;;;5073197;28;20447;-55
2023/10/01 00:46:04;;;;;;;11.30;7.93;;;15.50;94.80;;;;;;5073208;28;20449;-56
2023/10/01 00:48:31;;;;;;;14.40;7.90;;;15.50;94.80;;;;;;5073171;28;20536;-56
2023/10/01 00:51:00;;;;;;;9.90;8.00;;;15.50;94.80;;;;;;5073091;28;20464;-56
2023/10/01 00:53:27;;;;;;;11.60;7.57;;;15.50;94.70;;;;;;5073211;28;20453;-55
2023/10/01 00:55:54;;;;;;;10.20;7.43;;;15.50;94.80;;;;;;5073096;28;20451;-56
2023/10/01 00:58:22;;;;;;;10.60;7.33;;;15.50;94.80;;;;;;5072819;28;20448;-55
2023/10/01 01:00:50;;;;;;;12.00;7.23;;;15.50;94.70;;;;;;5072867;28;20515;-56
2023/10/01 01:03:21;;;;;;;11.03;7.60;;;15.40;94.70;;;;;;5072914;28;20495;-56
2023/10/01 01:06:05;;;;;;;10.93;7.40;;;15.40;94.80;;;;;;5072930;28;20425;-56
2023/10/01 01:08:34;;;;;;;11.50;6.77;;;15.40;94.80;;;;;;5073004;28;20819;-56
2023/10/01 01:11:02;;;;;;;10.40;6.40;;;15.30;94.80;;;;;;5072873;28;20461;-56
2023/10/01 01:13:30;;;;;;;10.53;6.97;;;15.40;94.90;;;;;;5072814;28;20525;-55
2023/10/01 01:15:57;;;;;;;18.00;8.30;;;15.40;94.70;;;;;;5072870;28;20444;-56
2023/10/01 01:18:26;;;;;;;11.80;6.50;;;15.40;94.80;;;;;;5076405;28;20494;-56
2023/10/01 01:20:58;;;;;;;8.30;6.63;;;15.30;94.80;;;;;;5076447;28;20561;-55
2023/10/01 01:23:25;;;;;;;10.37;6.97;;;15.30;94.80;;;;;;5076626;28;20468;-56
2023/10/01 01:25:53;;;;;;;10.93;6.60;;;15.30;94.90;;;;;;5076613;28;20474;-56
2023/10/01 01:28:24;;;;;;;16.93;9.00;;;15.30;95.30;;;;;;5076546;28;20449;-56
2023/10/01 01:30:52;;;;;;;13.03;7.20;;;15.20;95.00;;;;;;5076418;28;20460;-56
2023/10/01 01:33:21;;;;;;;13.80;7.37;;;15.20;94.90;;;;;;5075899;28;20946;-56
2023/10/01 01:35:49;;;;;;;12.00;6.57;;;15.20;94.90;;;;;;5076410;28;20539;-56
2023/10/01 01:38:16;;;;;;;12.17;7.43;;;15.20;95.00;;;;;;5076332;28;20447;-56
2023/10/01 01:40:47;;;;;;;10.53;6.47;;;15.20;95.10;;;;;;5076122;28;20526;-56
2023/10/01 01:43:22;;;;;;;10.30;6.90;;;15.20;95.10;;;;;;5076194;28;20428;-55
2023/10/01 01:45:54;;;;;;;9.67;6.37;;;15.20;95.10;;;;;;5076210;28;20465;-56
2023/10/01 01:48:30;;;;;;;9.17;7.23;;;15.20;95.00;;;;;;5076201;28;20429;-56
2023/10/01 01:50:58;;;;;;;9.20;6.83;;;15.20;95.00;;;;;;5076152;28;20467;-56
2023/10/01 01:53:27;;;;;;;7.80;5.67;;;15.10;94.90;;;;;;5076103;28;20498;-56
2023/10/01 01:55:59;;;;;;;12.33;6.83;;;15.10;94.90;;;;;;5076068;28;20468;-56
2023/10/01 01:58:26;;;;;;;9.80;6.40;;;15.10;94.90;;;;;;5076078;28;20464;-56
2023/10/01 02:01:08;;;;;;;7.93;5.77;;;15.10;94.90;;;;;;5075861;28;20484;-56
2023/10/01 02:03:37;;;;;;;14.70;6.47;;;15.10;94.90;;;;;;5085304;28;20439;-55
2023/10/01 02:06:06;;;;;;;10.10;6.30;;;15.20;94.80;;;;;;5096157;28;20470;-56
2023/10/01 02:08:47;;;;;;;10.70;6.30;;;15.20;95.10;;;;;;5096093;28;20447;-55
2023/10/01 02:11:16;;;;;;;12.80;5.93;;;15.10;94.70;;;;;;5095921;28;20541;-56
2023/10/01 02:13:45;;;;;;;9.83;6.23;;;15.10;94.70;;;;;;5095870;28;20439;-55
2023/10/01 02:19:21;;;;;;;10.40;6.20;;;15.10;94.70;;;;;;5084744;28;20517;-56
2023/10/01 02:21:52;;;;;;;13.10;5.40;;;15.20;94.70;;;;;;5095750;28;20833;-56
2023/10/01 02:24:22;;;;;;;7.43;5.27;;;15.20;94.70;;;;;;5095593;28;20525;-55
2023/10/01 02:26:59;;;;;;;8.13;5.37;;;15.30;94.70;;;;;;5095696;28;20488;-56
2023/10/01 02:29:29;;;;;;;6.80;5.20;;;15.30;94.70;;;;;;5095098;28;20542;-56
2023/10/01 02:31:57;;;;;;;13.17;6.20;;;15.30;94.60;;;;;;5095676;28;20431;-56
2023/10/01 02:34:24;;;;;;;9.90;5.50;;;15.30;94.50;;;;;;5094165;28;20463;-55
2023/10/01 02:36:55;;;;;;;7.73;5.30;;;15.30;94.30;;;;;;5095320;28;20897;-55
2023/10/01 02:39:27;;;;;;;7.00;5.60;;;15.30;94.10;;;;;;5095415;28;20463;-56
2023/10/01 02:42:09;;;;;;;7.67;5.90;;;15.30;94.00;;;;;;5095090;28;21030;-56
2023/10/01 02:44:39;;;;;;;8.00;5.00;;;15.40;94.00;;;;;;5095323;28;20641;-55
2023/10/01 02:47:16;;;;;;;9.03;5.73;;;15.30;94.00;;;;;;5095408;28;20858;-55
2023/10/01 02:49:49;;;;;;;10.07;6.60;;;15.30;93.90;;;;;;5095017;28;20821;-55
2023/10/01 02:52:16;;;;;;;11.80;5.30;;;15.20;93.80;;;;;;5095169;28;20460;-55
2023/10/01 02:54:44;;;;;;;8.30;5.70;;;15.20;94.00;;;;;;5095200;28;20447;-56
2023/10/01 02:57:23;;;;;;;7.80;5.33;;;15.10;94.00;;;;;;5095073;28;20444;-55
2023/10/01 03:02:33;;;;;;;8.20;5.50;;;15.10;94.10;;;;;;5094451;28;20443;-56
2023/10/01 03:05:08;;;;;;;7.17;5.20;;;15.00;94.10;;;;;;5094803;28;20450;-55
2023/10/01 03:07:38;;;;;;;9.10;5.30;;;15.00;94.10;;;;;;5094676;28;20976;-55
2023/10/01 03:10:12;;;;;;;7.70;5.20;;;14.90;94.50;;;;;;5094872;28;20464;-55
2023/10/01 03:12:40;;;;;;;6.37;4.80;;;14.90;94.40;;;;;;5094537;28;20482;-55
2023/10/01 03:15:24;;;;;;;9.33;6.30;;;14.80;94.50;;;;;;5094737;28;20812;-54
2023/10/01 03:17:56;;;;;;;7.83;4.70;;;14.80;94.60;;;;;;5094532;28;20909;-55
2023/10/01 03:23:13;;;;;;;8.03;6.20;;;14.80;94.80;;;;;;5094438;28;20412;-55
2023/10/01 03:25:57;;;;;;;6.40;5.63;;;14.80;94.80;;;;;;5094240;28;20838;-55
2023/10/01 03:28:27;;;;;;;8.43;5.70;;;14.90;94.90;;;;;;5094627;28;20428;-56
2023/10/01 03:31:01;;;;;;;8.87;5.30;;;15.00;94.90;;;;;;5094404;28;20464;-55
2023/10/01 03:33:30;;;;;;;10.47;4.93;;;15.00;94.80;;;;;;5094610;28;20825;-55
2023/10/01 03:35:57;;;;;;;6.37;4.77;;;15.00;94.50;;;;;;5094398;28;20444;-55
2023/10/01 03:38:24;;;;;;;5.60;4.50;;;15.00;94.50;;;;;;5094323;28;20440;-56
2023/10/01 03:41:02;;;;;;;9.50;5.00;;;15.00;94.50;;;;;;5093339;28;20488;-56
2023/10/01 03:43:35;;;;;;;5.90;4.40;;;15.10;94.60;;;;;;5093679;28;20523;-55
2023/10/01 03:46:07;;;;;;;8.63;4.70;;;15.10;94.50;;;;;;5094314;28;20424;-55
2023/10/01 03:48:57;;;;;;;7.50;5.13;;;15.10;94.70;;;;;;5094369;28;20518;-56
2023/10/01 03:51:28;;;;;;;7.97;4.90;;;15.10;94.30;;;;;;5093786;28;21020;-55
2023/10/01 03:53:59;;;;;;;7.30;5.03;;;15.10;94.30;;;;;;5094138;28;20432;-55
2023/10/01 03:56:29;;;;;;;8.43;4.60;;;15.10;94.30;;;;;;5094125;28;20428;-55
2023/10/01 03:58:57;;;;;;;6.43;5.13;;;15.00;94.20;;;;;;5094235;28;20454;-55
2023/10/01 04:01:33;;;;;;;8.93;5.20;;;15.00;94.30;;;;;;5093811;28;20476;-55
2023/10/01 04:04:01;;;;;;;7.40;5.30;;;15.00;94.30;;;;;;5093933;28;20424;-55
2023/10/01 04:06:29;;;;;;;6.37;4.60;;;15.00;94.30;;;;;;5093874;28;20444;-55
2023/10/01 04:08:59;;;;;;;6.70;4.30;;;15.00;94.20;;;;;;5093758;28;20448;-55
2023/10/01 04:14:10;;;;;;;6.67;4.40;;;15.00;94.10;;;;;;5093191;28;20439;-55
2023/10/01 04:16:46;;;;;;;10.17;5.00;;;15.00;94.10;;;;;;5093727;28;20468;-55
2023/10/01 04:19:18;;;;;;;6.37;5.13;;;14.90;94.00;;;;;;5093639;28;20542;-55
2023/10/01 04:21:50;;;;;;;7.13;5.10;;;14.90;94.00;;;;;;5093614;28;20521;-56
2023/10/01 04:24:17;;;;;;;8.07;4.57;;;14.90;94.00;;;;;;5093298;28;20498;-55
2023/10/01 04:26:44;;;;;;;8.57;5.07;;;14.90;94.00;;;;;;5093572;28;20447;-55
2023/10/01 04:29:16;;;;;;;6.27;4.73;;;14.90;94.10;;;;;;5093517;28;20567;-55
2023/10/01 04:31:47;;;;;;;5.20;4.53;;;14.90;94.00;;;;;;5093450;28;20427;-55
2023/10/01 04:34:17;;;;;;;8.40;4.73;;;14.90;93.90;;;;;;5093513;28;20496;-56
2023/10/01 04:36:50;;;;;;;6.23;4.73;;;14.90;93.90;;;;;;5093490;28;20883;-55
2023/10/01 04:39:17;;;;;;;6.33;4.73;;;14.90;93.90;;;;;;5093511;28;20460;-56
2023/10/01 04:41:45;;;;;;;7.30;5.07;;;14.80;93.80;;;;;;5093254;28;20484;-55
2023/10/01 04:44:19;;;;;;;8.10;5.10;;;14.80;93.90;;;;;;5093215;28;20444;-56
2023/10/01 04:46:46;;;;;;;6.37;4.20;;;14.80;93.90;;;;;;5093417;28;20463;-56
2023/10/01 04:52:10;;;;;;;7.70;4.80;;;14.70;94.00;;;;;;5091132;28;21105;-55
2023/10/01 04:54:37;;;;;;;8.50;4.90;;;14.70;94.00;;;;;;5090760;28;20501;-56
2023/10/01 04:57:04;;;;;;;8.03;5.40;;;14.70;94.00;;;;;;5090848;28;20424;-55
2023/10/01 04:59:31;;;;;;;7.00;4.60;;;14.70;94.00;;;;;;5090447;28;20836;-56
2023/10/01 05:01:59;;;;;;;6.43;4.57;;;14.70;94.00;;;;;;5090437;28;20462;-55
2023/10/01 05:04:26;;;;;;;6.00;5.03;;;14.70;94.00;;;;;;5090556;28;20440;-55
2023/10/01 05:07:04;;;;;;;8.30;4.70;;;14.70;94.10;;;;;;5090725;28;20474;-55
2023/10/01 05:09:33;;;;;;;6.07;5.00;;;14.70;94.10;;;;;;5090591;28;20467;-55
2023/10/01 05:12:01;;;;;;;6.60;4.60;;;14.70;94.10;;;;;;5090546;28;20475;-56
2023/10/01 05:14:28;;;;;;;6.33;4.20;;;14.60;94.10;;;;;;5090111;28;20790;-55
2023/10/01 05:16:55;;;;;;;7.00;4.60;;;14.60;94.10;;;;;;5090221;28;20479;-55
2023/10/01 05:19:23;;;;;;;6.73;4.77;;;14.60;94.10;;;;;;5090378;28;20829;-55
2023/10/01 05:21:52;;;;;;;6.87;4.43;;;14.60;94.20;;;;;;5090351;28;20442;-55
2023/10/01 05:24:34;;;;;;;6.27;4.00;;;14.60;94.20;;;;;;5090420;28;20452;-56
2023/10/01 05:27:02;;;;;;;10.07;5.57;;;14.50;94.20;;;;;;5090357;28;20524;-55
2023/10/01 05:29:31;;;;;;;5.97;4.53;;;14.50;94.30;;;;;;5090154;28;20517;-55
2023/10/01 05:31:59;;;;;;;8.23;5.10;;;14.50;94.30;;;;;;5090139;28;20480;-55
2023/10/01 05:34:26;;;;;;;8.23;4.63;;;14.50;94.40;;;;;;5088938;28;20467;-55
2023/10/01 05:37:08;;;;;;;6.97;4.70;;;14.40;94.40;;;;;;5089780;28;20962;-55
2023/10/01 05:39:55;;;;;;;6.40;5.00;;;14.40;94.50;;;;;;5089786;28;20916;-55
2023/10/01 05:42:24;;;;;;;6.57;5.27;;;14.40;94.50;;;;;;5090101;28;20463;-55
2023/10/01 05:44:52;;;;;;;8.93;5.43;;;14.40;94.60;;;;;;5089599;28;20444;-55
2023/10/01 05:47:18;;;;;;;6.60;4.40;;;14.40;94.60;;;;;;5089880;28;20443;-55
2023/10/01 05:49:49;;;;;;;7.90;4.80;;;14.40;94.70;;;;;;5089631;28;20460;-55
2023/10/01 05:52:17;;;;;;;6.60;4.23;;;14.40;94.70;;;;;;5089743;28;20464;-55
2023/10/01 05:54:52;;;;;;;7.00;5.00;;;14.50;94.90;;;;;;5089843;28;20444;-55
2023/10/01 05:57:21;;;;;;;9.30;5.37;;;14.50;94.90;;;;;;5089876;28;20431;-55
2023/10/01 05:59:56;;;;;;;13.77;5.33;;;14.50;95.40;;;;;;5089641;28;20521;-55
2023/10/01 06:02:41;;;;;;;11.10;5.60;;;14.50;95.00;;;;;;5082245;28;20488;-55
2023/10/01 06:05:22;;;;;;;7.00;4.60;;;14.50;95.00;;;;;;5076133;28;20445;-55
2023/10/01 06:07:49;;;;;;;9.43;4.80;;;14.50;95.10;;;;;;5076121;28;20429;-55
2023/10/01 06:10:19;;;;;;;8.10;5.17;;;14.50;95.10;;;;;;5075855;28;20518;-54
2023/10/01 06:12:50;;;;;;;8.27;5.20;;;14.50;95.10;;;;;;5075633;28;20998;-55
2023/10/01 06:15:20;;;;;;;9.37;5.00;;;14.60;95.10;;;;;;5075855;28;20505;-55
2023/10/01 06:17:47;;;;;;;8.87;5.77;;;14.50;95.10;;;;;;5075892;28;20447;-55
2023/10/01 06:20:23;;;;;;;8.87;5.90;;;14.50;95.10;;;;;;5075580;28;20469;-56
2023/10/01 06:22:50;;;;;;;8.20;5.10;;;14.60;95.20;;;;;;5075476;28;20967;-55
2023/10/01 06:25:17;;;;;;;8.27;5.33;;;14.60;95.40;;;;;;5075714;28;20480;-55
2023/10/01 06:27:43;;;;;;;8.00;5.43;;;14.60;95.50;;;;;;5075676;28;20531;-55
2023/10/01 06:30:11;;;;;;;9.33;5.77;;;14.60;95.70;;;;;;5075194;28;21016;-55
2023/10/01 06:32:39;;;;;;;8.07;5.57;;;14.60;95.80;;;;;;5075572;28;20452;-55
2023/10/01 06:35:06;;;;;;;6.60;5.10;;;14.60;95.90;;;;;;5075586;28;20535;-55
2023/10/01 06:37:50;;;;;;;11.63;5.60;;;14.70;96.00;;;;;;5075549;28;20539;-55
2023/10/01 06:40:30;;;;;;;9.73;5.67;;;14.70;96.20;;;;;;5075413;28;20461;-55
2023/10/01 06:42:58;;;;;;;6.23;5.13;;;14.70;96.30;;;;;;5075322;28;20429;-55
2023/10/01 06:45:38;;;;;;;8.93;5.53;;;14.80;96.10;;;;;;5075373;28;20445;-55
2023/10/01 06:48:09;;;;;;;7.27;5.00;;;14.80;96.20;;;;;;5075041;28;20960;-55
2023/10/01 06:50:37;;;;;;;10.40;5.77;;;14.90;96.50;;;;;;5074705;28;20488;-55
2023/10/01 06:53:04;;;;;;;9.50;5.40;;;14.90;96.60;;;;;;5075178;28;20440;-55
2023/10/01 06:55:32;;;;;;;9.63;5.90;;;15.00;96.60;;;;;;5075029;28;20472;-55
2023/10/01 06:58:00;;;;;;;10.30;5.70;;;15.00;96.60;;;;;;5074961;28;20472;-55
2023/10/01 07:00:33;;;;;;;9.63;5.57;;;15.10;96.40;;;;;;5073122;28;20460;-55
2023/10/01 07:03:16;;;;;;;10.87;6.80;;;15.20;96.50;;;;;;5054995;28;20430;-55
2023/10/01 07:05:46;;;;;;;10.23;5.90;;;15.30;96.70;;;;;;5055047;28;20504;-55
2023/10/01 07:08:13;;;;;;;9.50;6.00;;;15.30;96.60;;;;;;5055234;28;20450;-55
2023/10/01 07:10:40;;;;;;;9.43;6.40;;;15.40;96.70;;;;;;5054669;28;20843;-55
2023/10/01 07:13:07;;;;;;;12.17;6.40;;;15.50;96.60;;;;;;5054256;28;20481;-55
2023/10/01 07:15:39;;;;;;;9.30;6.27;;;15.50;96.30;;;;;;5054271;28;20484;-55
2023/10/01 07:18:15;;;;;;;9.23;6.10;;;15.60;96.30;;;;;;5054802;28;20426;-55
2023/10/01 07:20:44;;;;;;;12.57;6.00;;;15.70;96.30;;;;;;5054323;28;20461;-55
2023/10/01 07:23:12;;;;;;;9.67;5.70;;;15.80;96.10;;;;;;5054589;28;20503;-55
2023/10/01 07:25:42;;;;;;;10.70;6.57;;;15.90;96.00;;;;;;5054520;28;20437;-55
2023/10/01 07:28:12;;;;;;;11.83;6.80;;;16.00;95.90;;;;;;5054643;28;20445;-55
2023/10/01 07:30:46;;;;;;;10.87;6.47;;;16.10;95.70;;;;;;5054343;28;20556;-55
2023/10/01 07:33:14;;;;;;;9.80;5.80;;;16.30;95.50;;;;;;5054151;28;20900;-55
2023/10/01 07:35:44;;;;;;;9.73;5.90;;;16.40;95.10;;;;;;5054351;28;20442;-55
2023/10/01 07:38:13;;;;;;;14.23;6.87;;;16.40;95.00;;;;;;5054328;28;20485;-55
2023/10/01 07:40:57;;;;;;;16.03;7.63;;;16.50;94.90;;;;;;5054276;28;20476;-55
2023/10/01 07:43:24;;;;;;;12.57;7.57;;;16.60;94.70;;;;;;5054302;28;20429;-55
2023/10/01 07:45:58;;;;;;;10.93;6.50;;;16.70;94.50;;;;;;5054221;28;20869;-56
2023/10/01 07:48:27;;;;;;;9.83;6.53;;;16.80;94.40;;;;;;5054250;28;20433;-56
2023/10/01 07:50:55;;;;;;;11.67;6.50;;;17.00;94.20;;;;;;5053712;28;20592;-56
2023/10/01 07:53:24;;;;;;;12.10;7.20;;;17.00;94.10;;;;;;5054153;28;20445;-56
2023/10/01 07:55:50;;;;;;;11.50;6.50;;;17.10;94.00;;;;;;5054191;28;20789;-56
2023/10/01 07:58:23;;;;;;;15.57;7.10;;;17.20;93.70;;;;;;5054070;28;20817;-56
2023/10/01 08:00:59;;;;;;;12.47;6.50;;;17.30;93.60;;;;;;5054133;28;20466;-56
2023/10/01 08:03:32;;;;;;;13.13;7.40;;;17.40;93.60;;;;;;5053946;28;20911;-56
2023/10/01 08:06:12;;;;;;;9.73;6.53;;;17.50;93.50;;;;;;5054152;28;20430;-56
2023/10/01 08:08:47;;;;;;;14.00;6.13;;;17.60;93.40;;;;;;5054145;28;20426;-56
2023/10/01 08:13:55;;;;;;;12.57;7.93;;;17.80;93.10;;;;;;5053418;28;20434;-56
2023/10/01 08:16:22;;;;;;;9.03;6.00;;;17.90;93.00;;;;;;5053916;28;20444;-56
2023/10/01 08:18:51;;;;;;;9.70;6.37;;;17.90;92.90;;;;;;5053636;28;20982;-56
2023/10/01 08:21:17;;;;;;;11.17;6.30;;;18.00;92.70;;;;;;5053310;28;20845;-56
2023/10/01 08:23:49;;;;;;;12.40;6.43;;;18.10;92.60;;;;;;5053151;28;20450;-56
2023/10/01 08:29:00;;;;;;;12.07;7.50;;;18.30;92.90;;;;;;5053505;28;20447;-56
2023/10/01 08:32:07;;;;;;;14.60;7.00;;;18.40;92.60;;;;;;5053006;28;21093;-55
2023/10/01 08:34:50;;;;;;;11.57;6.20;;;18.40;92.60;;;;;;5053186;28;20950;-56
2023/10/01 08:37:22;;;;;;;10.87;6.90;;;18.60;92.70;;;;;;5053352;28;20552;-56
2023/10/01 08:39:53;;;;;;;13.00;7.80;;;18.70;92.80;;;;;;5053271;28;20461;-56
2023/10/01 08:42:19;;;;;;;16.20;7.93;;;18.70;93.00;;;;;;5053340;28;20454;-56
2023/10/01 08:44:51;;;;;;;9.63;6.90;;;18.90;93.30;;;;;;5053231;28;20445;-55
2023/10/01 08:47:31;;;;;;;13.20;7.30;;;19.00;93.30;;;;;;5053333;28;20429;-56
2023/10/01 08:50:15;;;;;;;13.30;7.83;;;19.00;93.10;;;;;;5053092;28;20485;-56
2023/10/01 08:52:52;;;;;;;14.13;7.13;;;19.10;92.90;;;;;;5053138;28;20892;-56
2023/10/01 08:55:23;;;;;;;12.07;7.03;;;19.20;92.30;;;;;;5053233;28;20603;-56
2023/10/01 08:57:52;;;;;;;10.40;6.03;;;19.30;92.00;;;;;;5053161;28;20438;-56
2023/10/01 09:00:24;;;;;;;13.00;7.20;;;19.40;92.40;;;;;;5053252;28;20469;-56
2023/10/01 09:02:55;;;;;;;12.87;7.30;;;19.40;92.20;;;;;;5053230;28;20512;-57
2023/10/01 09:05:25;;;;;;;12.50;6.90;;;19.50;91.60;;;;;;5053175;28;20442;-56
2023/10/01 09:08:15;;;;;;;13.07;7.80;;;19.60;91.30;;;;;;5053278;28;20426;-56
2023/10/01 09:10:53;;;;;;;12.43;6.87;;;19.70;91.10;;;;;;5052994;28;20465;-56
2023/10/01 09:13:22;;;;;;;12.83;7.00;;;19.70;91.00;;;;;;5052981;28;20433;-56
2023/10/01 09:15:54;;;;;;;12.97;8.27;;;19.90;91.20;;;;;;5052976;28;20446;-56
2023/10/01 09:18:24;;;;;;;14.70;7.80;;;20.00;91.20;;;;;;5053015;28;20429;-56
2023/10/01 09:21:06;;;;;;;12.80;7.37;;;20.10;91.10;;;;;;5053106;28;20474;-56
2023/10/01 09:23:54;;;;;;;13.60;7.50;;;20.10;90.90;;;;;;5052974;28;20476;-56
2023/10/01 09:26:39;;;;;;;13.73;7.80;;;20.20;90.80;;;;;;5052969;28;20529;-57
2023/10/01 09:29:13;;;;;;;14.33;8.90;;;20.40;90.30;;;;;;5052945;28;20422;-57
2023/10/01 09:31:52;;;;;;;11.10;7.33;;;20.40;89.70;;;;;;5052779;28;20474;-56
2023/10/01 09:34:31;;;;;;;12.97;7.07;;;20.60;90.50;;;;;;5052877;28;20432;-57
2023/10/01 09:37:01;;;;;;;16.17;7.90;;;20.70;89.70;;;;;;5053186;28;20425;-57
2023/10/01 09:39:41;;;;;;;12.37;6.90;;;20.90;87.90;;;;;;5056584;28;20469;-57
2023/10/01 09:42:24;;;;;;;14.17;7.87;;;21.10;88.30;;;;;;5056519;28;20421;-56
2023/10/01 09:44:52;;;;;;;11.27;7.07;;;21.20;87.50;;;;;;5056474;28;20437;-56
2023/10/01 09:47:24;;;;;;;11.77;7.23;;;21.40;87.60;;;;;;5056451;28;20441;-57
2023/10/01 09:49:52;;;;;;;13.73;7.83;;;21.70;85.80;;;;;;5056245;28;20512;-57
2023/10/01 09:52:30;;;;;;;15.00;7.83;;;22.10;84.90;;;;;;5056255;28;20473;-56
2023/10/01 09:55:02;;;;;;;14.00;7.20;;;22.50;81.30;;;;;;5056049;28;20865;-57
2023/10/01 09:57:34;;;;;;;12.53;7.80;;;22.90;80.50;;;;;;5056385;28;20475;-57
2023/10/01 10:00:14;;;;;;;16.93;8.20;;;23.40;79.10;;;;;;5056138;28;20894;-57
2023/10/01 10:02:51;;;;;;;12.80;7.67;;;23.90;77.20;;;;;;5056234;28;20450;-56
2023/10/01 10:05:24;;;;;;;12.53;7.53;;;24.40;75.40;;;;;;5056266;28;20469;-57
2023/10/01 10:07:52;;;;;;;11.90;7.67;;;24.90;73.40;;;;;;5056134;28;20472;-57
2023/10/01 10:10:24;;;;;;;13.47;8.87;;;25.40;70.90;;;;;;5055961;28;20472;-57
2023/10/01 10:12:56;;;;;;;13.70;8.50;;;25.70;68.30;;;;;;5055847;28;20904;-57
2023/10/01 10:15:57;;;;;;;12.87;8.37;;;25.90;66.70;;;;;;5055980;28;20466;-57
2023/10/01 10:18:24;;;;;;;15.83;8.90;;;26.10;64.30;;;;;;5055818;28;20874;-57
2023/10/01 10:20:58;;;;;;;12.83;8.07;;;26.40;63.90;;;;;;5055758;28;20523;-57
2023/10/01 10:23:30;;;;;;;12.97;8.80;;;26.70;63.80;;;;;;5055752;28;20433;-57
2023/10/01 10:26:12;;;;;;;13.57;8.10;;;27.10;61.20;;;;;;5055476;28;20963;-57
2023/10/01 10:28:55;;;;;;;13.10;8.20;;;27.40;58.30;;;;;;5055863;28;20466;-57
2023/10/01 10:31:30;;;;;;;13.90;8.20;;;27.60;57.50;;;;;;5055425;28;20448;-56
2023/10/01 10:34:24;;;;;;;12.70;7.80;;;27.90;56.70;;;;;;5055653;28;20433;-57
2023/10/01 10:36:51;;;;;;;9.37;7.47;;;28.50;55.40;;;;;;5055578;28;20484;-57
2023/10/01 10:40:26;;;;;;;12.50;7.90;;;29.20;52.30;;;;;;5055346;28;20461;-57
2023/10/01 10:43:16;;;;;;;11.40;7.87;;;29.60;50.30;;;;;;5054987;28;20433;-57
2023/10/01 10:45:59;;;;;;;12.03;8.53;;;30.50;48.40;;;;;;5055087;28;20915;-57
2023/10/01 10:49:02;;;;;;;16.63;9.00;;;31.10;45.60;;;;;;5054838;28;20895;-57
2023/10/01 10:51:50;;;;;;;11.20;7.80;;;31.40;44.60;;;;;;5054799;28;20495;-57
2023/10/01 10:54:30;;;;;;;15.80;8.23;;;32.00;44.20;;;;;;5055847;28;20437;-57
2023/10/01 10:56:59;;;;;;;13.30;9.17;;;32.40;43.30;;;;;;5054925;28;20445;-57
2023/10/01 10:59:29;;;;;;;13.47;8.40;;;32.80;41.90;;;;;;5055028;28;20476;-57
2023/10/01 11:01:58;;;;;;;12.63;8.83;;;32.70;39.50;;;;;;5055223;28;20427;-57
2023/10/01 11:04:31;;;;;;;11.10;8.30;;;32.70;40.40;;;;;;5055238;28;20445;-57
2023/10/01 11:07:04;;;;;;;11.20;8.73;;;32.90;39.60;;;;;;5054929;28;20429;-57
2023/10/01 11:09:33;;;;;;;11.27;8.63;;;33.20;38.90;;;;;;5054932;28;20472;-57
2023/10/01 11:12:05;;;;;;;11.90;8.30;;;33.50;37.60;;;;;;5054680;28;20476;-57
2023/10/01 11:14:33;;;;;;;12.00;9.00;;;33.60;37.50;;;;;;5054973;28;20800;-57
2023/10/01 11:17:02;;;;;;;9.67;8.70;;;33.80;38.00;;;;;;5054772;28;20452;-57
2023/10/01 11:19:35;;;;;;;11.10;8.77;;;34.10;36.40;;;;;;5054459;28;20475;-57
2023/10/01 11:22:03;;;;;;;13.10;9.50;;;34.20;36.20;;;;;;5054687;28;20426;-57
2023/10/01 11:24:32;;;;;;;10.77;8.37;;;34.40;35.40;;;;;;5054558;28;20448;-57
2023/10/01 11:27:19;;;;;;;10.93;9.47;;;34.70;35.10;;;;;;5054590;28;20467;-57
2023/10/01 11:30:13;;;;;;;11.70;8.97;;;34.80;35.00;;;;;;5054473;28;20542;-57
2023/10/01 11:32:58;;;;;;;12.03;9.73;;;35.10;35.10;;;;;;5054347;28;20206;-57
2023/10/01 11:35:31;;;;;;;11.50;8.23;;;35.50;33.20;;;;;;5067359;28;20259;-57
2023/10/01 11:38:00;;;;;;;14.57;9.57;;;35.60;33.00;;;;;;5074230;28;20281;-57
2023/10/01 11:41:06;;;;;;;9.90;8.53;;;35.70;32.20;;;;;;5073823;28;20707;-58
2023/10/01 11:43:23;;;;;;;11.87;8.87;;;35.90;31.90;;;;;;5073813;28;20205;-57
2023/10/01 11:46:18;;;;;;;11.20;8.83;;;36.10;31.30;;;;;;5074256;28;20193;-57
2023/10/01 11:48:57;;;;;;;11.35;10.13;;;36.40;30.70;;;;;;5074226;28;20187;-57
2023/10/01 11:51:42;;;;;;;12.02;9.43;;;36.90;29.40;;;;;;5073689;28;20653;-58
2023/10/01 11:54:10;;;;;;;10.73;9.50;;;37.10;29.40;;;;;;5074058;28;20178;-57
2023/10/01 11:56:41;;;;;;;11.15;9.25;;;37.20;29.70;;;;;;5074034;28;20240;-58
2023/10/01 11:59:11;;;;;;;14.30;10.20;;;37.30;29.30;;;;;;5073669;28;20201;-57
2023/10/01 12:01:47;;;;;;;14.63;10.65;;;37.40;29.20;;;;;;5073541;28;20201;-58
2023/10/01 12:04:21;;;;;;;11.73;10.27;;;37.50;28.00;;;;;;5073950;28;20200;-58
2023/10/01 12:06:48;;;;;;;11.25;9.88;;;37.60;28.10;;;;;;5073998;28;20603;-58
2023/10/01 12:09:17;;;;;;;15.63;11.02;;;37.80;28.00;;;;;;5073645;28;20267;-57
2023/10/01 12:12:02;;;;;;;12.63;10.52;;;38.10;28.10;;;;;;5073621;28;20204;-57
2023/10/01 12:14:29;;;;;;;14.68;11.00;;;38.40;27.50;;;;;;5073451;28;20192;-57
2023/10/01 12:16:57;;;;;;;13.10;10.65;;;38.40;26.50;;;;;;5073626;28;20209;-57
2023/10/01 12:19:25;;;;;;;13.73;11.68;;;38.60;27.50;;;;;;5073665;28;20228;-57
2023/10/01 12:22:05;;;;;;;12.45;10.65;;;38.60;25.90;;;;;;5073476;28;20198;-57
2023/10/01 12:24:39;;;;;;;12.15;10.85;;;38.60;26.30;;;;;;5073609;28;20235;-57
2023/10/01 12:27:11;;;;;;;13.20;10.63;;;38.50;26.40;;;;;;5073307;28;20647;-57
2023/10/01 12:29:48;;;;;;;13.48;12.05;;;38.60;26.10;;;;;;5073237;28;20710;-58
2023/10/01 12:32:16;;;;;;;12.55;11.10;;;38.80;26.40;;;;;;5073406;28;20209;-57
2023/10/01 12:34:46;;;;;;;13.32;11.80;;;39.10;26.30;;;;;;5073581;28;20225;-58
2023/10/01 12:40:13;;;;;;;12.15;10.85;;;39.70;26.00;;;;;;5072505;28;20313;-57
2023/10/01 12:42:39;;;;;;;13.75;11.98;;;40.10;25.10;;;;;;5073103;28;20204;-58
2023/10/01 12:45:14;;;;;;;13.57;11.77;;;40.50;24.10;;;;;;5073375;28;20659;-59
2023/10/01 12:47:50;;;;;;;13.35;11.95;;;40.90;23.90;;;;;;5073485;28;20189;-58
2023/10/01 12:50:26;;;;;;;13.65;12.25;;;40.90;23.10;;;;;;5073075;28;20713;-58
2023/10/01 12:53:18;;;;;;;11.93;10.70;;;40.50;24.00;;;;;;5073247;28;20209;-58
2023/10/01 12:55:44;;;;;;;15.48;12.88;;;40.60;24.10;;;;;;5072957;28;20288;-58
2023/10/01 12:58:10;;;;;;;15.30;12.70;;;40.70;23.50;;;;;;5073273;28;20201;-58
2023/10/01 13:00:44;;;;;;;13.57;11.95;;;40.80;23.50;;;;;;5073081;28;20252;-57
2023/10/01 13:03:16;;;;;;;14.65;12.35;;;40.80;23.20;;;;;;5072948;28;20636;-58
2023/10/01 13:05:45;;;;;;;13.63;12.23;;;40.70;23.60;;;;;;5073034;28;20186;-57
2023/10/01 13:08:13;;;;;;;13.63;12.23;;;40.70;23.90;;;;;;5073202;28;20284;-58
2023/10/01 13:10:50;;;;;;;14.23;11.80;;;40.80;23.70;;;;;;5073074;28;20228;-58
2023/10/01 13:13:20;;;;;;;14.00;12.50;;;41.10;23.10;;;;;;5075810;28;20205;-57
2023/10/01 13:15:51;;;;;;;13.70;12.30;;;41.40;22.60;;;;;;5077079;28;20240;-58
2023/10/01 13:18:18;;;;;;;13.23;11.82;;;41.60;22.80;;;;;;5077063;28;20226;-58
2023/10/01 13:20:58;;;;;;;13.48;12.18;;;41.90;22.30;;;;;;5076778;28;20225;-57
2023/10/01 13:23:25;;;;;;;13.02;11.43;;;42.30;21.90;;;;;;5076998;28;20186;-58
2023/10/01 13:26:05;;;;;;;12.60;11.30;;;42.50;21.60;;;;;;5076882;28;20201;-55
2023/10/01 13:28:43;;;;;;;12.68;11.38;;;42.90;21.50;;;;;;5076529;28;20655;-55
2023/10/01 13:31:24;;;;;;;14.02;12.63;;;43.20;21.20;;;;;;5076526;28;20282;-55